Time;durP1;ratioP1;P1;durP2;ratioP2;P2;SDS_P1;SDS_P2;PMS_P1;PMS_P2;Temp;Humidity;BMP_temperature;BMP_pressure;BME280_temperature;BME280_humidity;BME280_pressure;Samples;Min_cycle;Max_cycle;Signal;HPM_P1;HPM_P2
2021/01/21 00:00:40;;;;;;;3.45;1.77;;;9.40;84.10;;;;;;5045237;28;20034;-80
2021/01/21 00:03:06;;;;;;;6.10;2.45;;;9.50;83.80;;;;;;5041729;28;20040;-80
2021/01/21 00:05:32;;;;;;;5.05;1.80;;;9.50;83.90;;;;;;5048142;28;20486;-80
2021/01/21 00:07:57;;;;;;;4.10;1.40;;;9.50;83.80;;;;;;5044544;28;20041;-80
2021/01/21 00:10:23;;;;;;;5.00;1.88;;;9.40;83.80;;;;;;5063093;28;20056;-79
2021/01/21 00:12:51;;;;;;;5.68;1.67;;;9.40;83.70;;;;;;5037927;28;20474;-80
2021/01/21 00:15:17;;;;;;;3.53;1.60;;;9.40;83.40;;;;;;5068904;28;20058;-80
2021/01/21 00:17:44;;;;;;;3.67;1.23;;;9.40;83.60;;;;;;5032694;28;20139;-80
2021/01/21 00:20:11;;;;;;;6.18;1.50;;;9.40;83.00;;;;;;5050620;28;20107;-80
2021/01/21 00:22:37;;;;;;;5.63;1.70;;;9.40;82.70;;;;;;5018851;28;20386;-80
2021/01/21 00:25:04;;;;;;;3.25;1.60;;;9.40;83.60;;;;;;5052652;28;20045;-79
2021/01/21 00:27:31;;;;;;;2.85;1.65;;;9.40;83.10;;;;;;5051379;28;20032;-79
2021/01/21 00:29:57;;;;;;;5.03;1.65;;;9.30;83.00;;;;;;5040988;28;20052;-80
2021/01/21 00:32:22;;;;;;;4.22;1.85;;;9.30;82.90;;;;;;5045417;28;20029;-80
2021/01/21 00:34:50;;;;;;;6.88;2.00;;;9.30;83.20;;;;;;5047571;28;20699;-80
2021/01/21 00:37:15;;;;;;;4.95;1.52;;;9.20;83.40;;;;;;5027834;28;20072;-80
2021/01/21 00:39:41;;;;;;;5.40;1.52;;;9.20;83.50;;;;;;5040625;28;20052;-80
2021/01/21 00:42:07;;;;;;;6.22;1.63;;;9.20;83.50;;;;;;5028729;28;20056;-80
2021/01/21 00:44:33;;;;;;;4.03;1.40;;;9.20;83.60;;;;;;5025558;28;20132;-80
2021/01/21 00:46:58;;;;;;;3.58;1.27;;;9.10;83.70;;;;;;5062726;28;20057;-79
2021/01/21 00:49:24;;;;;;;4.45;1.77;;;9.10;83.70;;;;;;5031231;28;20064;-80
2021/01/21 00:51:50;;;;;;;4.97;1.38;;;9.10;83.80;;;;;;5047537;28;20088;-80
2021/01/21 00:54:15;;;;;;;1.75;1.13;;;9.10;83.70;;;;;;5039707;28;20087;-80
2021/01/21 00:56:41;;;;;;;2.92;1.08;;;9.00;83.70;;;;;;5047765;28;20044;-80
2021/01/21 00:59:08;;;;;;;3.97;1.20;;;9.10;83.30;;;;;;5055699;28;20040;-80
2021/01/21 01:01:35;;;;;;;3.22;1.02;;;9.10;83.30;;;;;;5034572;28;20037;-80
2021/01/21 01:04:01;;;;;;;3.88;1.60;;;9.10;83.10;;;;;;5047995;28;20041;-80
2021/01/21 01:06:27;;;;;;;3.10;1.38;;;9.10;83.20;;;;;;5045733;28;20053;-80
2021/01/21 01:08:53;;;;;;;3.40;0.90;;;9.20;83.00;;;;;;5060361;28;20033;-80
2021/01/21 01:11:24;;;;;;;2.58;1.20;;;9.20;82.90;;;;;;5042854;28;20876;-80
2021/01/21 01:13:50;;;;;;;4.25;1.75;;;9.30;82.50;;;;;;5062383;28;20437;-80
2021/01/21 01:16:16;;;;;;;3.90;1.10;;;9.20;82.40;;;;;;5065221;28;20072;-80
2021/01/21 01:18:41;;;;;;;2.95;1.13;;;9.20;82.50;;;;;;5029385;28;20121;-80
2021/01/21 01:21:07;;;;;;;5.25;1.00;;;9.30;82.10;;;;;;5045409;28;20060;-80
2021/01/21 01:23:33;;;;;;;3.15;1.10;;;9.30;81.90;;;;;;5049147;28;20041;-80
2021/01/21 01:25:59;;;;;;;2.60;1.20;;;9.30;81.90;;;;;;5039855;28;20258;-80
2021/01/21 01:28:24;;;;;;;4.32;1.23;;;9.30;81.70;;;;;;5049056;28;20041;-80
2021/01/21 01:30:50;;;;;;;3.75;1.25;;;9.20;82.30;;;;;;5026597;28;20147;-80
2021/01/21 01:33:16;;;;;;;3.42;1.23;;;9.20;81.70;;;;;;5034081;28;20049;-80
2021/01/21 01:35:42;;;;;;;2.17;0.93;;;9.20;81.80;;;;;;5055907;28;20714;-79
2021/01/21 01:38:09;;;;;;;3.25;1.17;;;9.10;81.40;;;;;;5047591;28;20052;-80
2021/01/21 01:40:34;;;;;;;6.22;1.55;;;9.10;81.70;;;;;;5040918;28;20040;-80
2021/01/21 01:43:00;;;;;;;3.60;1.17;;;9.00;81.80;;;;;;5036982;28;20057;-80
2021/01/21 01:45:27;;;;;;;3.72;1.00;;;9.10;81.80;;;;;;5029796;28;20081;-79
2021/01/21 01:47:52;;;;;;;5.07;1.20;;;9.10;82.00;;;;;;5059042;28;20060;-80
2021/01/21 01:50:18;;;;;;;4.00;0.90;;;9.10;82.50;;;;;;5044774;28;20128;-80
2021/01/21 01:52:44;;;;;;;3.03;1.10;;;9.10;81.60;;;;;;5042674;28;20417;-80
2021/01/21 01:55:16;;;;;;;2.92;1.10;;;9.10;81.70;;;;;;5047188;28;20432;-80
2021/01/21 01:57:44;;;;;;;2.83;0.98;;;9.20;81.10;;;;;;5053718;28;20405;-80
2021/01/21 02:00:10;;;;;;;5.22;0.80;;;9.30;81.20;;;;;;5060003;28;20042;-80
2021/01/21 02:02:36;;;;;;;3.80;1.00;;;9.40;81.00;;;;;;5033648;28;20036;-80
2021/01/21 02:05:03;;;;;;;6.38;1.13;;;9.40;81.10;;;;;;5049910;28;20037;-80
2021/01/21 02:07:29;;;;;;;2.40;0.82;;;9.50;80.40;;;;;;5048685;28;20426;-80
2021/01/21 02:09:56;;;;;;;3.33;0.90;;;9.50;80.20;;;;;;5053889;28;20052;-80
2021/01/21 02:12:42;;;;;;;2.45;0.98;;;9.60;80.00;;;;;;5044889;28;20377;-81
2021/01/21 02:15:34;;;;;;;5.90;1.25;;;9.60;79.40;;;;;;5029873;28;20448;-80
2021/01/21 02:18:41;;;;;;;3.85;1.08;;;9.70;78.00;;;;;;5026878;28;20040;-80
2021/01/21 02:21:29;;;;;;;3.45;1.00;;;9.80;77.50;;;;;;5008717;28;20042;-80
2021/01/21 02:24:17;;;;;;;4.75;0.68;;;9.80;77.10;;;;;;5021210;28;20131;-80
2021/01/21 02:26:57;;;;;;;3.38;1.00;;;9.80;77.00;;;;;;5003974;28;20103;-80
2021/01/21 02:29:36;;;;;;;2.45;1.25;;;9.80;76.50;;;;;;5013018;28;20124;-80
2021/01/21 02:32:35;;;;;;;3.65;0.98;;;9.90;77.80;;;;;;5045107;28;20041;-80
2021/01/21 02:35:05;;;;;;;3.63;1.13;;;9.90;77.00;;;;;;5031367;28;20053;-80
2021/01/21 02:37:35;;;;;;;6.18;1.30;;;9.90;77.40;;;;;;5022994;28;20425;-80
2021/01/21 02:40:04;;;;;;;4.40;0.93;;;10.00;76.80;;;;;;5035375;28;20635;-80
2021/01/21 02:42:51;;;;;;;1.85;0.63;;;10.00;76.40;;;;;;5027396;28;20549;-80
2021/01/21 02:45:17;;;;;;;2.00;0.82;;;10.10;75.80;;;;;;5011973;28;20445;-80
2021/01/21 02:47:43;;;;;;;2.92;0.90;;;10.10;76.50;;;;;;5008157;28;20068;-81
2021/01/21 02:50:10;;;;;;;3.08;1.00;;;10.10;76.80;;;;;;5007427;28;20058;-80
2021/01/21 02:52:40;;;;;;;3.38;1.00;;;10.10;77.30;;;;;;5034076;28;20029;-80
2021/01/21 02:55:45;;;;;;;4.03;0.80;;;10.10;77.10;;;;;;5016615;28;20442;-80
2021/01/21 02:58:24;;;;;;;3.22;1.35;;;10.10;76.10;;;;;;4990440;28;20051;-80
2021/01/21 03:00:52;;;;;;;5.20;1.30;;;10.10;76.40;;;;;;4984742;28;20106;-80
2021/01/21 03:03:23;;;;;;;1.73;1.20;;;10.20;76.20;;;;;;4972784;28;20090;-80
2021/01/21 03:05:54;;;;;;;4.00;1.10;;;10.20;76.70;;;;;;4964771;28;20356;-80
2021/01/21 03:08:20;;;;;;;1.83;0.80;;;10.20;75.90;;;;;;4974848;28;20038;-80
2021/01/21 03:10:48;;;;;;;3.10;0.65;;;10.20;76.30;;;;;;4967388;28;20106;-80
2021/01/21 03:13:14;;;;;;;2.67;0.82;;;10.30;77.20;;;;;;4986659;28;20089;-80
2021/01/21 03:15:40;;;;;;;5.90;0.88;;;10.20;78.00;;;;;;4963004;28;20035;-80
2021/01/21 03:18:06;;;;;;;3.88;1.02;;;10.10;79.00;;;;;;4972578;28;20058;-80
2021/01/21 03:20:32;;;;;;;4.95;1.08;;;10.00;79.70;;;;;;4981294;28;20054;-80
2021/01/21 03:22:58;;;;;;;3.80;1.33;;;9.80;81.10;;;;;;4991825;28;20567;-81
2021/01/21 03:25:24;;;;;;;2.35;0.82;;;9.80;81.70;;;;;;4972309;28;20688;-80
2021/01/21 03:27:50;;;;;;;3.00;0.80;;;9.80;81.40;;;;;;4989447;28;20038;-80
2021/01/21 03:30:16;;;;;;;3.00;0.85;;;9.80;80.90;;;;;;4971965;28;20045;-80
2021/01/21 03:32:42;;;;;;;4.35;0.95;;;9.80;80.70;;;;;;5009957;28;20074;-80
2021/01/21 03:35:08;;;;;;;3.85;0.93;;;9.80;80.10;;;;;;5009546;28;20053;-80
2021/01/21 03:37:34;;;;;;;3.35;1.08;;;10.00;79.90;;;;;;5005418;28;20042;-80
2021/01/21 03:40:00;;;;;;;4.53;0.90;;;10.00;79.50;;;;;;5026579;28;20029;-80
2021/01/21 03:42:26;;;;;;;1.30;0.47;;;10.10;78.90;;;;;;5015962;28;20042;-80
2021/01/21 03:44:52;;;;;;;2.67;1.17;;;10.10;79.00;;;;;;5044148;28;20064;-80
2021/01/21 03:47:18;;;;;;;3.50;0.88;;;10.10;78.90;;;;;;5004343;28;20058;-80
2021/01/21 03:49:44;;;;;;;4.28;1.00;;;10.10;78.90;;;;;;5024938;28;20040;-80
2021/01/21 03:52:09;;;;;;;3.35;1.05;;;10.20;78.70;;;;;;5005504;28;20092;-80
2021/01/21 03:54:35;;;;;;;3.78;1.17;;;10.20;78.60;;;;;;5006970;28;20715;-80
2021/01/21 03:57:01;;;;;;;2.58;0.57;;;10.20;78.70;;;;;;5004657;28;20589;-80
2021/01/21 03:59:27;;;;;;;1.92;0.70;;;10.20;77.90;;;;;;5020094;28;20458;-80
2021/01/21 04:01:53;;;;;;;4.13;0.63;;;10.30;77.90;;;;;;5003890;28;20038;-80
2021/01/21 04:04:18;;;;;;;2.90;1.02;;;10.30;78.30;;;;;;5022402;28;20057;-81
2021/01/21 04:06:44;;;;;;;1.65;0.85;;;10.30;79.20;;;;;;5036844;28;20181;-81
2021/01/21 04:09:10;;;;;;;4.65;0.70;;;10.20;79.40;;;;;;5036469;28;20050;-80
2021/01/21 04:11:41;;;;;;;3.13;0.98;;;10.20;79.30;;;;;;5019334;28;20037;-80
2021/01/21 04:14:07;;;;;;;4.05;0.98;;;10.20;79.20;;;;;;5012564;28;20054;-80
2021/01/21 04:16:33;;;;;;;1.88;0.70;;;10.20;80.10;;;;;;5006333;28;20508;-81
2021/01/21 04:18:59;;;;;;;2.33;0.70;;;10.10;80.60;;;;;;5037700;28;20060;-81
2021/01/21 04:21:25;;;;;;;2.58;0.80;;;10.10;81.70;;;;;;5061658;28;20049;-81
2021/01/21 04:23:54;;;;;;;4.07;1.10;;;10.00;82.80;;;;;;5040393;28;20041;-81
2021/01/21 04:26:20;;;;;;;2.50;0.80;;;9.90;85.20;;;;;;5033748;28;20088;-81
2021/01/21 04:28:46;;;;;;;4.78;1.10;;;9.70;86.60;;;;;;5044791;28;20064;-81
2021/01/21 04:31:11;;;;;;;4.70;1.30;;;9.60;88.30;;;;;;5032083;28;20136;-81
2021/01/21 04:33:37;;;;;;;4.55;1.25;;;9.50;89.40;;;;;;5034908;28;20671;-81
2021/01/21 04:36:03;;;;;;;2.63;1.00;;;9.40;90.00;;;;;;5048807;28;20049;-81
2021/01/21 04:38:29;;;;;;;3.78;1.00;;;9.30;90.60;;;;;;5050869;28;20133;-81
2021/01/21 04:40:55;;;;;;;4.68;1.05;;;9.20;90.90;;;;;;5031291;28;20061;-81
2021/01/21 04:43:21;;;;;;;3.55;1.05;;;9.20;91.70;;;;;;5025936;28;20041;-81
2021/01/21 04:45:47;;;;;;;4.55;1.33;;;9.00;91.50;;;;;;5051884;28;20042;-80
2021/01/21 04:48:13;;;;;;;3.97;1.10;;;9.00;91.80;;;;;;5047188;28;20141;-80
2021/01/21 04:50:40;;;;;;;3.92;1.35;;;9.00;92.10;;;;;;5067633;28;20209;-80
2021/01/21 04:53:08;;;;;;;3.45;1.35;;;8.90;92.30;;;;;;5031844;28;20048;-81
2021/01/21 04:55:41;;;;;;;4.45;1.30;;;8.90;92.50;;;;;;5047417;28;20056;-80
2021/01/21 04:58:24;;;;;;;6.00;1.00;;;8.80;93.10;;;;;;5022714;28;20069;-80
2021/01/21 05:00:50;;;;;;;2.97;0.60;;;8.70;93.70;;;;;;5042650;28;20036;-80
2021/01/21 05:03:17;;;;;;;1.77;0.30;;;8.40;93.30;;;;;;5060131;28;20083;-80
2021/01/21 05:05:43;;;;;;;3.72;0.50;;;8.00;92.20;;;;;;5056528;28;20049;-80
2021/01/21 05:08:09;;;;;;;1.30;0.20;;;7.60;92.50;;;;;;5060007;28;20341;-80
2021/01/21 05:10:35;;;;;;;3.10;0.30;;;7.30;92.40;;;;;;5019968;28;20042;-81
2021/01/21 05:13:01;;;;;;;1.80;0.40;;;7.00;92.80;;;;;;5051215;28;20044;-80
2021/01/21 05:15:27;;;;;;;2.80;0.40;;;6.90;92.60;;;;;;5033697;28;20424;-80
2021/01/21 05:17:53;;;;;;;5.28;0.57;;;6.70;92.70;;;;;;5038031;28;20049;-81
2021/01/21 05:20:26;;;;;;;6.32;0.50;;;6.60;92.90;;;;;;5029213;28;20459;-80
2021/01/21 05:23:04;;;;;;;3.90;0.52;;;6.50;92.90;;;;;;5067869;28;20037;-80
2021/01/21 05:25:31;;;;;;;2.78;0.40;;;6.50;93.30;;;;;;5054656;28;20120;-80
2021/01/21 05:27:58;;;;;;;2.80;0.70;;;6.40;93.40;;;;;;5065171;28;20032;-80
2021/01/21 05:30:28;;;;;;;3.83;0.50;;;6.40;93.30;;;;;;5043034;28;20051;-80
2021/01/21 05:32:57;;;;;;;2.00;0.20;;;6.30;93.20;;;;;;5028142;28;20144;-80
2021/01/21 05:35:25;;;;;;;3.45;0.50;;;6.30;93.20;;;;;;5042945;28;20124;-80
2021/01/21 05:37:54;;;;;;;8.30;0.70;;;6.10;92.90;;;;;;5044273;28;20052;-80
2021/01/21 05:40:29;;;;;;;5.93;0.70;;;6.10;93.30;;;;;;5045625;28;20044;-81
2021/01/21 05:42:56;;;;;;;7.80;0.95;;;6.10;93.20;;;;;;5034403;28;20121;-80
2021/01/21 05:45:23;;;;;;;3.60;1.15;;;6.10;93.10;;;;;;5025335;28;20100;-81
2021/01/21 05:47:59;;;;;;;6.57;1.20;;;6.00;93.20;;;;;;5047708;28;20037;-81
2021/01/21 05:50:26;;;;;;;4.28;0.80;;;6.10;93.00;;;;;;5031152;28;20071;-80
2021/01/21 05:52:56;;;;;;;9.63;1.02;;;6.00;93.00;;;;;;5039481;28;20564;-81
2021/01/21 05:55:23;;;;;;;6.35;0.63;;;6.00;93.00;;;;;;5047574;28;20040;-80
2021/01/21 05:57:50;;;;;;;7.45;0.88;;;6.10;92.80;;;;;;5029402;28;20044;-80
2021/01/21 06:00:17;;;;;;;7.95;1.25;;;6.00;92.90;;;;;;5051528;28;20052;-80
2021/01/21 06:02:44;;;;;;;8.80;1.23;;;6.10;92.90;;;;;;5050121;28;20465;-80
2021/01/21 06:05:17;;;;;;;7.80;0.88;;;6.10;93.00;;;;;;5065481;28;20040;-81
2021/01/21 06:07:43;;;;;;;5.78;1.05;;;6.10;92.60;;;;;;5034179;28;20440;-78
2021/01/21 06:10:09;;;;;;;6.32;0.88;;;6.10;92.60;;;;;;5035428;28;20045;-80
2021/01/21 06:12:35;;;;;;;6.32;1.00;;;6.20;92.40;;;;;;5022256;28;20689;-79
2021/01/21 06:15:02;;;;;;;7.72;1.02;;;6.30;92.30;;;;;;5049067;28;20043;-80
2021/01/21 06:17:28;;;;;;;4.32;0.80;;;6.30;91.90;;;;;;5012436;28;20090;-80
2021/01/21 06:19:54;;;;;;;8.90;1.42;;;6.40;92.30;;;;;;5034917;28;20072;-81
2021/01/21 06:22:28;;;;;;;7.32;1.13;;;6.40;92.30;;;;;;5053070;28;20124;-82
2021/01/21 06:24:58;;;;;;;7.03;1.00;;;6.40;92.10;;;;;;5072670;28;20048;-81
2021/01/21 06:27:26;;;;;;;11.60;1.92;;;6.40;92.20;;;;;;5060713;28;20259;-81
2021/01/21 06:29:55;;;;;;;14.27;2.05;;;6.40;92.20;;;;;;5068620;28;20064;-80
2021/01/21 06:32:27;;;;;;;13.48;2.30;;;6.50;91.80;;;;;;5045497;28;20044;-81
2021/01/21 06:34:56;;;;;;;6.47;1.60;;;6.40;91.70;;;;;;5040225;28;20037;-81
2021/01/21 06:37:24;;;;;;;9.82;1.67;;;6.40;90.60;;;;;;5033637;28;20045;-81
2021/01/21 06:40:00;;;;;;;8.38;1.23;;;6.50;90.60;;;;;;5040239;28;20025;-80
2021/01/21 06:43:00;;;;;;;10.07;1.20;;;6.40;90.30;;;;;;5029179;28;20109;-81
2021/01/21 06:45:31;;;;;;;11.45;1.60;;;6.30;90.50;;;;;;4997280;28;20053;-80
2021/01/21 06:47:57;;;;;;;12.48;2.10;;;6.10;90.30;;;;;;4979636;28;20040;-81
2021/01/21 06:50:27;;;;;;;9.05;1.42;;;6.10;90.50;;;;;;5010458;28;20060;-81
2021/01/21 06:52:56;;;;;;;10.85;1.58;;;6.10;90.60;;;;;;4993420;28;20669;-81
2021/01/21 06:55:22;;;;;;;12.23;1.55;;;6.00;90.90;;;;;;5012753;28;20426;-80
2021/01/21 06:57:47;;;;;;;12.27;1.42;;;5.90;91.20;;;;;;4973743;28;20041;-81
2021/01/21 07:00:16;;;;;;;12.80;1.80;;;6.00;91.40;;;;;;5004336;28;20539;-80
2021/01/21 07:02:46;;;;;;;13.75;2.75;;;6.00;91.70;;;;;;4988705;28;20193;-80
2021/01/21 07:05:17;;;;;;;9.95;1.23;;;6.00;91.80;;;;;;4985392;28;20113;-80
2021/01/21 07:08:01;;;;;;;9.27;1.48;;;6.00;91.10;;;;;;4999434;28;20128;-80
2021/01/21 07:10:45;;;;;;;9.30;1.63;;;6.10;90.80;;;;;;4993775;28;20057;-80
2021/01/21 07:13:21;;;;;;;7.85;1.63;;;6.10;91.30;;;;;;5003872;28;20046;-81
2021/01/21 07:15:55;;;;;;;7.70;1.67;;;6.00;91.00;;;;;;4990523;28;20101;-80
2021/01/21 07:18:22;;;;;;;12.95;1.35;;;6.00;90.80;;;;;;4996697;28;20034;-80
2021/01/21 07:21:06;;;;;;;8.07;1.40;;;5.90;90.70;;;;;;5013058;28;20045;-81
2021/01/21 07:23:44;;;;;;;12.80;1.30;;;5.80;90.80;;;;;;5060754;28;20124;-81
2021/01/21 07:26:31;;;;;;;11.13;1.75;;;5.70;91.10;;;;;;5054272;28;20060;-84
2021/01/21 07:29:06;;;;;;;9.68;1.73;;;5.60;90.70;;;;;;5047522;28;20057;-81
2021/01/21 07:31:53;;;;;;;10.35;1.63;;;5.40;91.10;;;;;;5033371;28;20060;-80
2021/01/21 07:34:26;;;;;;;6.88;1.33;;;5.40;90.60;;;;;;5041503;28;20029;-80
2021/01/21 07:37:22;;;;;;;9.45;1.25;;;5.30;90.50;;;;;;5037529;28;20400;-81
2021/01/21 07:39:55;;;;;;;7.47;1.33;;;5.30;88.60;;;;;;5032578;28;20061;-81
2021/01/21 07:42:23;;;;;;;9.15;1.00;;;5.30;89.40;;;;;;5049475;28;20044;-81
2021/01/21 07:45:13;;;;;;;6.07;1.20;;;5.40;88.80;;;;;;5019768;28;20118;-83
2021/01/21 07:47:41;;;;;;;5.15;1.00;;;5.30;87.70;;;;;;5035402;28;20180;-83
2021/01/21 07:50:22;;;;;;;6.93;0.93;;;5.30;89.00;;;;;;5012930;28;20059;-83
2021/01/21 07:52:49;;;;;;;9.90;1.40;;;5.30;89.20;;;;;;5032070;28;20045;-83
2021/01/21 07:55:23;;;;;;;7.78;1.02;;;5.20;89.70;;;;;;5027415;28;20041;-84
2021/01/21 07:57:49;;;;;;;5.65;1.13;;;5.20;89.20;;;;;;5029569;28;20084;-82
2021/01/21 08:00:16;;;;;;;9.75;1.55;;;5.20;88.90;;;;;;5045105;28;20052;-82
2021/01/21 08:02:46;;;;;;;6.30;1.08;;;5.30;89.40;;;;;;5053592;28;20112;-82
2021/01/21 08:05:13;;;;;;;10.50;1.80;;;5.30;88.80;;;;;;5055825;28;20078;-81
2021/01/21 08:07:57;;;;;;;9.13;1.38;;;5.40;89.30;;;;;;5035372;28;20582;-82
2021/01/21 08:10:25;;;;;;;13.68;2.97;;;5.40;88.90;;;;;;5034539;28;20124;-81
2021/01/21 08:13:01;;;;;;;7.25;1.35;;;5.40;89.70;;;;;;5046437;28;20079;-83
2021/01/21 08:15:29;;;;;;;8.35;1.58;;;5.60;88.90;;;;;;5023816;28;20516;-84
2021/01/21 08:17:56;;;;;;;7.13;0.95;;;5.60;89.20;;;;;;5049652;28;20049;-82
2021/01/21 08:20:25;;;;;;;8.98;1.23;;;5.70;87.60;;;;;;5066674;28;20045;-82
2021/01/21 08:23:02;;;;;;;6.82;1.15;;;5.80;88.50;;;;;;5030824;28;20065;-81
2021/01/21 08:25:41;;;;;;;11.10;1.48;;;5.80;89.00;;;;;;5053679;28;20033;-84
2021/01/21 08:28:08;;;;;;;5.97;1.15;;;5.70;86.40;;;;;;5047945;28;20032;-83
2021/01/21 08:30:34;;;;;;;5.60;0.98;;;5.70;88.10;;;;;;5032083;28;20060;-83
2021/01/21 08:33:25;;;;;;;7.13;1.00;;;5.80;88.60;;;;;;5031999;28;20055;-84
2021/01/21 08:35:57;;;;;;;9.02;1.23;;;5.80;86.90;;;;;;5034486;28;20040;-84
2021/01/21 08:38:30;;;;;;;6.45;1.00;;;5.80;88.70;;;;;;5044346;28;20043;-84
2021/01/21 08:40:57;;;;;;;12.60;1.50;;;5.90;88.10;;;;;;5030496;28;20494;-83
2021/01/21 08:43:59;;;;;;;9.88;1.90;;;5.90;87.80;;;;;;5060598;28;20060;-86
2021/01/21 08:46:27;;;;;;;11.00;1.85;;;6.00;87.30;;;;;;5030148;28;20056;-83
2021/01/21 08:48:53;;;;;;;6.03;1.13;;;6.00;87.40;;;;;;5028901;28;20057;-83
2021/01/21 08:51:42;;;;;;;11.65;1.42;;;6.10;87.10;;;;;;5024684;28;20070;-82
2021/01/21 08:54:16;;;;;;;7.20;0.98;;;6.00;86.00;;;;;;5039642;28;20183;-84
2021/01/21 08:56:42;;;;;;;5.18;0.90;;;5.90;86.40;;;;;;5043891;28;20029;-84
2021/01/21 08:59:25;;;;;;;9.63;1.25;;;5.90;86.20;;;;;;5038278;28;20056;-84
2021/01/21 09:01:51;;;;;;;10.90;1.45;;;5.80;84.70;;;;;;5052056;28;23675;-83
2021/01/21 09:04:31;;;;;;;2.53;0.47;;;5.80;86.20;;;;;;5043391;28;20041;-85
2021/01/21 09:06:59;;;;;;;4.97;1.15;;;5.70;84.40;;;;;;5048416;28;20048;-81
2021/01/21 09:09:37;;;;;;;11.70;3.00;;;5.70;86.50;;;;;;5028580;28;20049;-81
2021/01/21 09:12:14;;;;;;;10.52;1.17;;;5.70;86.90;;;;;;5042001;28;20033;-83
2021/01/21 09:14:43;;;;;;;9.85;1.10;;;5.70;85.50;;;;;;5034169;28;20053;-83
2021/01/21 09:17:16;;;;;;;6.40;0.90;;;5.70;87.10;;;;;;5066997;28;20044;-86
2021/01/21 09:19:45;;;;;;;9.60;1.30;;;5.70;85.00;;;;;;5030065;28;20144;-83
2021/01/21 09:22:16;;;;;;;2.67;0.90;;;5.70;86.00;;;;;;5036418;28;20065;-84
2021/01/21 09:25:01;;;;;;;8.55;1.35;;;5.80;86.10;;;;;;5037525;28;20040;-84
2021/01/21 09:27:31;;;;;;;12.60;1.42;;;5.80;83.90;;;;;;5035016;28;20033;-84
2021/01/21 09:29:59;;;;;;;7.45;1.15;;;5.80;85.30;;;;;;5031453;28;20453;-84
2021/01/21 09:32:33;;;;;;;7.50;1.27;;;5.80;85.10;;;;;;5047715;28;20052;-83
2021/01/21 09:35:02;;;;;;;6.95;1.25;;;5.90;85.50;;;;;;5047305;28;20036;-83
2021/01/21 09:37:30;;;;;;;8.10;1.27;;;5.80;85.80;;;;;;5052063;28;20045;-82
2021/01/21 09:39:57;;;;;;;6.20;1.15;;;5.90;85.70;;;;;;5034574;28;20119;-82
2021/01/21 09:42:23;;;;;;;11.15;1.27;;;5.90;85.50;;;;;;5047610;28;20055;-83
2021/01/21 09:45:05;;;;;;;4.78;0.77;;;5.90;85.40;;;;;;5059245;28;20477;-85
2021/01/21 09:47:32;;;;;;;7.20;1.25;;;5.90;83.20;;;;;;5027788;28;20437;-83
2021/01/21 09:49:58;;;;;;;7.05;0.80;;;6.00;84.60;;;;;;5064971;28;20057;-83
2021/01/21 09:52:24;;;;;;;5.50;1.30;;;6.00;84.60;;;;;;5044373;28;20074;-81
2021/01/21 09:54:49;;;;;;;6.80;1.67;;;5.90;84.80;;;;;;5057305;28;20053;-84
2021/01/21 09:57:15;;;;;;;7.20;1.50;;;6.10;82.90;;;;;;5027639;28;20061;-81
2021/01/21 09:59:42;;;;;;;7.38;1.23;;;6.20;84.90;;;;;;5063371;28;20045;-83
2021/01/21 10:02:08;;;;;;;11.23;2.42;;;6.20;84.60;;;;;;5028079;28;20074;-82
2021/01/21 10:04:36;;;;;;;10.82;1.23;;;6.30;83.90;;;;;;5029387;28;20045;-85
2021/01/21 10:07:03;;;;;;;6.70;1.33;;;6.30;83.80;;;;;;5040834;28;20053;-83
2021/01/21 10:09:29;;;;;;;12.77;1.77;;;6.40;83.90;;;;;;5015746;28;20064;-83
2021/01/21 10:11:55;;;;;;;12.32;1.58;;;6.30;83.30;;;;;;5045011;28;20046;-84
2021/01/21 10:14:21;;;;;;;12.25;2.28;;;6.40;83.60;;;;;;5043964;28;20167;-82
2021/01/21 10:16:47;;;;;;;9.57;1.80;;;6.40;83.50;;;;;;5019727;28;20067;-83
2021/01/21 10:19:13;;;;;;;10.93;1.88;;;6.50;83.20;;;;;;5043609;28;20581;-82
2021/01/21 10:21:39;;;;;;;9.70;1.75;;;6.50;82.60;;;;;;5053833;28;20088;-81
2021/01/21 10:24:05;;;;;;;10.15;1.92;;;6.60;84.00;;;;;;5026283;28;20350;-83
2021/01/21 10:26:31;;;;;;;7.65;1.40;;;6.60;82.80;;;;;;5078803;28;20045;-81
2021/01/21 10:28:57;;;;;;;7.45;1.42;;;6.70;83.30;;;;;;5049035;28;20032;-82
2021/01/21 10:31:23;;;;;;;9.02;1.70;;;6.80;83.70;;;;;;5022152;28;20085;-82
2021/01/21 10:33:49;;;;;;;9.63;1.20;;;6.80;82.40;;;;;;5054952;28;20056;-82
2021/01/21 10:36:14;;;;;;;8.55;1.35;;;6.90;81.90;;;;;;5055527;28;20048;-84
2021/01/21 10:38:41;;;;;;;9.68;2.42;;;6.90;82.30;;;;;;5040203;28;20051;-84
2021/01/21 10:41:07;;;;;;;11.85;2.50;;;6.90;82.50;;;;;;5028599;28;20045;-83
2021/01/21 10:43:33;;;;;;;6.53;1.50;;;6.90;82.50;;;;;;5031317;28;20184;-82
2021/01/21 10:45:59;;;;;;;12.07;1.98;;;7.00;82.60;;;;;;5029922;28;20119;-83
2021/01/21 10:48:25;;;;;;;7.43;1.48;;;7.10;82.80;;;;;;5027799;28;20040;-83
2021/01/21 10:50:51;;;;;;;7.10;1.20;;;7.10;82.20;;;;;;5030098;28;20050;-81
2021/01/21 10:53:17;;;;;;;10.63;1.45;;;7.20;81.40;;;;;;5043125;28;20049;-82
2021/01/21 10:55:42;;;;;;;10.45;2.15;;;7.20;81.10;;;;;;5055992;28;20723;-84
2021/01/21 10:58:08;;;;;;;7.15;1.13;;;7.30;81.70;;;;;;5050097;28;20040;-84
2021/01/21 11:00:47;;;;;;;12.43;1.83;;;7.40;80.20;;;;;;5033283;28;20110;-86
2021/01/21 11:03:16;;;;;;;6.15;1.40;;;7.40;78.30;;;;;;5026480;28;20091;-84
2021/01/21 11:05:43;;;;;;;9.32;1.80;;;7.50;80.00;;;;;;5043508;28;20060;-85
2021/01/21 11:08:10;;;;;;;9.98;1.63;;;7.50;81.00;;;;;;5026374;28;20029;-85
2021/01/21 11:10:36;;;;;;;9.25;1.65;;;7.60;81.40;;;;;;5033843;28;20072;-84
2021/01/21 11:13:03;;;;;;;8.70;1.80;;;7.70;81.40;;;;;;5044841;28;20045;-83
2021/01/21 11:15:34;;;;;;;8.85;1.85;;;7.70;80.20;;;;;;5047601;28;20041;-84
2021/01/21 11:18:01;;;;;;;8.77;1.75;;;7.80;79.10;;;;;;5022374;28;20045;-84
2021/01/21 11:20:34;;;;;;;13.15;1.85;;;7.70;80.30;;;;;;5027990;28;20049;-81
2021/01/21 11:22:59;;;;;;;10.45;1.80;;;7.70;81.60;;;;;;5047093;28;20042;-81
2021/01/21 11:25:25;;;;;;;8.38;1.95;;;7.70;81.80;;;;;;5052209;28;20479;-85
2021/01/21 11:27:51;;;;;;;8.43;1.58;;;7.70;80.50;;;;;;5045334;28;20043;-83
2021/01/21 11:30:18;;;;;;;7.05;1.63;;;7.70;80.20;;;;;;5052859;28;20056;-81
2021/01/21 11:32:43;;;;;;;7.40;1.77;;;7.70;79.90;;;;;;5062193;28;20041;-81
2021/01/21 11:35:09;;;;;;;4.50;1.35;;;7.70;78.20;;;;;;5045075;28;20041;-82
2021/01/21 11:37:35;;;;;;;6.13;1.17;;;7.70;78.20;;;;;;5058480;28;20096;-82
2021/01/21 11:40:01;;;;;;;8.50;1.50;;;7.70;78.30;;;;;;5048794;28;20764;-82
2021/01/21 11:42:27;;;;;;;8.18;1.30;;;7.70;79.00;;;;;;5031724;28;20073;-82
2021/01/21 11:44:53;;;;;;;9.10;1.70;;;7.70;79.00;;;;;;5024818;28;20100;-83
2021/01/21 11:47:19;;;;;;;9.23;1.45;;;7.60;79.40;;;;;;5038163;28;20107;-83
2021/01/21 11:49:45;;;;;;;10.23;1.55;;;7.70;78.50;;;;;;5064592;28;20045;-81
2021/01/21 11:52:11;;;;;;;11.52;2.47;;;7.70;79.50;;;;;;5038265;28;20738;-82
2021/01/21 11:54:38;;;;;;;14.25;1.90;;;7.80;80.30;;;;;;5047115;28;20075;-81
2021/01/21 11:57:04;;;;;;;11.00;1.63;;;7.90;80.40;;;;;;5050065;28;20064;-82
2021/01/21 11:59:30;;;;;;;9.50;1.50;;;7.90;80.70;;;;;;5022398;28;20056;-81
2021/01/21 12:01:56;;;;;;;10.20;1.50;;;7.80;80.40;;;;;;5018544;28;20489;-82
2021/01/21 12:04:22;;;;;;;5.15;1.10;;;8.00;79.60;;;;;;5047254;28;20110;-82
2021/01/21 12:06:49;;;;;;;7.82;1.42;;;8.10;78.00;;;;;;5028447;28;20112;-82
2021/01/21 12:09:16;;;;;;;7.63;1.73;;;8.20;80.00;;;;;;5035251;28;20063;-85
2021/01/21 12:11:41;;;;;;;7.50;1.20;;;8.30;78.70;;;;;;5028402;28;20057;-83
2021/01/21 12:14:07;;;;;;;10.23;1.30;;;8.30;79.60;;;;;;5047114;28;20044;-82
2021/01/21 12:16:34;;;;;;;6.60;1.38;;;8.30;79.10;;;;;;5046089;28;20069;-83
2021/01/21 12:19:01;;;;;;;6.93;1.20;;;8.20;78.70;;;;;;5055551;28;20137;-83
2021/01/21 12:21:27;;;;;;;6.88;1.20;;;8.20;79.30;;;;;;5025180;28;20064;-83
2021/01/21 12:23:53;;;;;;;7.40;1.48;;;8.10;77.30;;;;;;4995656;28;20445;-83
2021/01/21 12:26:19;;;;;;;6.93;1.75;;;8.10;78.90;;;;;;5021141;28;20030;-83
2021/01/21 12:28:45;;;;;;;7.38;1.40;;;8.10;79.00;;;;;;5003062;28;20053;-83
2021/01/21 12:31:13;;;;;;;7.95;1.95;;;8.00;77.90;;;;;;5026269;28;20037;-84
2021/01/21 12:33:38;;;;;;;10.20;1.38;;;8.00;80.10;;;;;;5022726;28;20052;-83
2021/01/21 12:36:05;;;;;;;4.13;0.73;;;8.10;77.90;;;;;;5004939;28;20046;-83
2021/01/21 12:38:31;;;;;;;5.63;0.85;;;8.10;76.00;;;;;;5018274;28;20052;-82
2021/01/21 12:40:56;;;;;;;5.70;1.05;;;8.00;76.40;;;;;;5007339;28;20049;-82
2021/01/21 12:43:22;;;;;;;9.70;1.30;;;8.00;76.60;;;;;;5030115;28;20037;-83
2021/01/21 12:45:49;;;;;;;3.78;0.82;;;7.90;77.20;;;;;;5015217;28;20060;-83
2021/01/21 12:48:17;;;;;;;11.80;1.50;;;7.90;76.40;;;;;;5017025;28;20041;-83
2021/01/21 12:50:42;;;;;;;7.15;1.10;;;7.90;77.70;;;;;;5015055;28;20099;-83
2021/01/21 12:53:08;;;;;;;5.07;0.82;;;7.90;78.10;;;;;;5024618;28;20030;-84
2021/01/21 12:55:34;;;;;;;8.55;1.08;;;8.00;78.40;;;;;;5023011;28;20053;-82
2021/01/21 12:58:00;;;;;;;6.10;1.27;;;7.80;78.60;;;;;;5038329;28;20189;-83
2021/01/21 13:00:26;;;;;;;7.45;1.45;;;7.90;78.70;;;;;;5020940;28;20153;-82
2021/01/21 13:02:53;;;;;;;5.93;1.55;;;7.80;78.50;;;;;;5031280;28;20473;-82
2021/01/21 13:05:19;;;;;;;6.15;1.13;;;7.90;78.80;;;;;;5005538;28;20559;-84